sensor_id;sensor_type;location;lat;lon;timestamp;pressure;altitude;pressure_sealevel;temperature;humidity
42647;BME280;31319;53.678;-6.254;2022-08-19T00:02:04;100915.25;;;21.81;43.54
42647;BME280;31319;53.678;-6.254;2022-08-19T00:04:33;100919.56;;;21.72;43.88
42647;BME280;31319;53.678;-6.254;2022-08-19T00:07:04;100912.41;;;21.71;43.65
42647;BME280;31319;53.678;-6.254;2022-08-19T00:09:31;100915.19;;;21.74;43.66
42647;BME280;31319;53.678;-6.254;2022-08-19T00:11:57;100917.56;;;21.72;43.81
42647;BME280;31319;53.678;-6.254;2022-08-19T00:14:24;100920.75;;;21.71;43.83
42647;BME280;31319;53.678;-6.254;2022-08-19T00:16:51;100929.03;;;21.64;43.98
42647;BME280;31319;53.678;-6.254;2022-08-19T00:19:20;100924.66;;;21.63;43.88
42647;BME280;31319;53.678;-6.254;2022-08-19T00:21:45;100933.06;;;21.70;43.78
42647;BME280;31319;53.678;-6.254;2022-08-19T00:24:13;100926.38;;;21.81;43.38
42647;BME280;31319;53.678;-6.254;2022-08-19T00:26:41;100925.50;;;21.70;43.99
42647;BME280;31319;53.678;-6.254;2022-08-19T00:29:08;100929.34;;;21.58;43.94
42647;BME280;31319;53.678;-6.254;2022-08-19T00:31:34;100925.75;;;21.54;44.03
42647;BME280;31319;53.678;-6.254;2022-08-19T00:34:01;100929.41;;;21.62;43.98
42647;BME280;31319;53.678;-6.254;2022-08-19T00:36:26;100935.63;;;21.48;44.10
42647;BME280;31319;53.678;-6.254;2022-08-19T00:38:53;100927.38;;;21.59;43.86
42647;BME280;31319;53.678;-6.254;2022-08-19T00:41:20;100934.59;;;21.67;43.77
42647;BME280;31319;53.678;-6.254;2022-08-19T00:44:09;100934.38;;;21.42;44.38
42647;BME280;31319;53.678;-6.254;2022-08-19T00:46:37;100937.06;;;21.35;44.59
42647;BME280;31319;53.678;-6.254;2022-08-19T00:49:30;100943.84;;;21.38;44.51
42647;BME280;31319;53.678;-6.254;2022-08-19T00:52:00;100942.31;;;21.44;44.15
42647;BME280;31319;53.678;-6.254;2022-08-19T00:54:27;100953.38;;;21.37;44.29
42647;BME280;31319;53.678;-6.254;2022-08-19T00:56:53;100947.41;;;21.35;44.21
42647;BME280;31319;53.678;-6.254;2022-08-19T00:59:19;100947.00;;;21.32;44.29
42647;BME280;31319;53.678;-6.254;2022-08-19T01:01:46;100942.69;;;21.39;44.21
42647;BME280;31319;53.678;-6.254;2022-08-19T01:04:12;100941.84;;;21.38;44.15
42647;BME280;31319;53.678;-6.254;2022-08-19T01:06:39;100937.06;;;21.31;44.12
42647;BME280;31319;53.678;-6.254;2022-08-19T01:09:07;100941.03;;;21.34;44.13
42647;BME280;31319;53.678;-6.254;2022-08-19T01:11:35;100936.94;;;21.24;44.25
42647;BME280;31319;53.678;-6.254;2022-08-19T01:14:02;100934.88;;;21.18;44.53
42647;BME280;31319;53.678;-6.254;2022-08-19T01:16:29;100932.97;;;21.25;44.19
42647;BME280;31319;53.678;-6.254;2022-08-19T01:18:56;100938.50;;;21.22;44.56
42647;BME280;31319;53.678;-6.254;2022-08-19T01:21:32;100931.09;;;21.33;44.17
42647;BME280;31319;53.678;-6.254;2022-08-19T01:24:00;100932.28;;;21.32;44.11
42647;BME280;31319;53.678;-6.254;2022-08-19T01:26:26;100923.69;;;21.11;44.76
42647;BME280;31319;53.678;-6.254;2022-08-19T01:28:55;100928.84;;;21.09;44.80
42647;BME280;31319;53.678;-6.254;2022-08-19T01:31:24;100934.75;;;21.07;45.03
42647;BME280;31319;53.678;-6.254;2022-08-19T01:33:52;100932.66;;;20.97;45.27
42647;BME280;31319;53.678;-6.254;2022-08-19T01:36:39;100938.94;;;20.90;45.61
42647;BME280;31319;53.678;-6.254;2022-08-19T01:39:10;100938.50;;;20.88;45.52
42647;BME280;31319;53.678;-6.254;2022-08-19T01:41:36;100942.50;;;20.91;45.42
42647;BME280;31319;53.678;-6.254;2022-08-19T01:44:03;100948.06;;;20.91;45.51
42647;BME280;31319;53.678;-6.254;2022-08-19T01:46:30;100944.88;;;20.92;45.44
42647;BME280;31319;53.678;-6.254;2022-08-19T01:48:56;100948.44;;;20.89;45.61
42647;BME280;31319;53.678;-6.254;2022-08-19T01:51:22;100946.75;;;20.81;46.15
42647;BME280;31319;53.678;-6.254;2022-08-19T01:53:49;100948.72;;;20.81;45.91
42647;BME280;31319;53.678;-6.254;2022-08-19T01:56:15;100942.75;;;20.78;45.96
42647;BME280;31319;53.678;-6.254;2022-08-19T01:58:49;100945.38;;;20.68;46.38
42647;BME280;31319;53.678;-6.254;2022-08-19T02:01:16;100942.66;;;20.71;46.23
42647;BME280;31319;53.678;-6.254;2022-08-19T02:03:42;100940.16;;;20.63;46.65
42647;BME280;31319;53.678;-6.254;2022-08-19T02:06:08;100938.09;;;20.56;46.59
42647;BME280;31319;53.678;-6.254;2022-08-19T02:08:36;100936.63;;;20.39;47.23
42647;BME280;31319;53.678;-6.254;2022-08-19T02:11:03;100932.88;;;20.51;46.99
42647;BME280;31319;53.678;-6.254;2022-08-19T02:13:30;100934.44;;;20.48;47.00
42647;BME280;31319;53.678;-6.254;2022-08-19T02:15:56;100930.88;;;20.48;47.11
42647;BME280;31319;53.678;-6.254;2022-08-19T02:18:21;100937.81;;;20.38;47.55
42647;BME280;31319;53.678;-6.254;2022-08-19T02:20:47;100930.50;;;20.53;47.15
42647;BME280;31319;53.678;-6.254;2022-08-19T02:23:15;100928.91;;;20.52;47.21
42647;BME280;31319;53.678;-6.254;2022-08-19T02:25:43;100930.78;;;20.44;47.50
42647;BME280;31319;53.678;-6.254;2022-08-19T02:28:09;100934.72;;;20.43;47.70
42647;BME280;31319;53.678;-6.254;2022-08-19T02:30:37;100928.44;;;20.46;47.76
42647;BME280;31319;53.678;-6.254;2022-08-19T02:33:04;100920.50;;;20.45;47.88
42647;BME280;31319;53.678;-6.254;2022-08-19T02:35:30;100930.34;;;20.42;48.18
42647;BME280;31319;53.678;-6.254;2022-08-19T02:37:56;100933.06;;;20.39;48.16
42647;BME280;31319;53.678;-6.254;2022-08-19T02:40:40;100932.50;;;20.26;48.54
42647;BME280;31319;53.678;-6.254;2022-08-19T02:43:07;100929.34;;;20.28;48.36
42647;BME280;31319;53.678;-6.254;2022-08-19T02:45:38;100935.31;;;20.03;49.46
42647;BME280;31319;53.678;-6.254;2022-08-19T02:48:05;100930.56;;;20.30;48.47
42647;BME280;31319;53.678;-6.254;2022-08-19T02:50:31;100941.09;;;19.94;49.63
42647;BME280;31319;53.678;-6.254;2022-08-19T02:52:57;100938.13;;;19.80;50.25
42647;BME280;31319;53.678;-6.254;2022-08-19T02:55:23;100922.81;;;19.90;49.99
42647;BME280;31319;53.678;-6.254;2022-08-19T02:57:49;100925.19;;;20.14;49.12
42647;BME280;31319;53.678;-6.254;2022-08-19T03:00:15;100919.50;;;19.81;50.35
42647;BME280;31319;53.678;-6.254;2022-08-19T03:02:41;100925.84;;;19.81;50.26
42647;BME280;31319;53.678;-6.254;2022-08-19T03:05:08;100928.88;;;19.73;50.66
42647;BME280;31319;53.678;-6.254;2022-08-19T03:07:35;100921.16;;;19.62;50.93
42647;BME280;31319;53.678;-6.254;2022-08-19T03:10:01;100929.72;;;19.77;50.62
42647;BME280;31319;53.678;-6.254;2022-08-19T03:12:27;100924.13;;;19.50;51.82
42647;BME280;31319;53.678;-6.254;2022-08-19T03:14:52;100925.75;;;19.55;51.67
42647;BME280;31319;53.678;-6.254;2022-08-19T03:17:18;100920.00;;;19.63;51.58
42647;BME280;31319;53.678;-6.254;2022-08-19T03:19:44;100920.38;;;19.62;51.70
42647;BME280;31319;53.678;-6.254;2022-08-19T03:22:10;100928.91;;;19.53;52.01
42647;BME280;31319;53.678;-6.254;2022-08-19T03:24:36;100931.63;;;19.50;52.29
42647;BME280;31319;53.678;-6.254;2022-08-19T03:27:02;100931.56;;;19.69;51.76
42647;BME280;31319;53.678;-6.254;2022-08-19T03:29:31;100928.09;;;19.53;52.40
42647;BME280;31319;53.678;-6.254;2022-08-19T03:32:03;100928.59;;;19.35;52.78
42647;BME280;31319;53.678;-6.254;2022-08-19T03:34:30;100934.19;;;19.39;52.87
42647;BME280;31319;53.678;-6.254;2022-08-19T03:36:59;100918.88;;;19.45;52.74
42647;BME280;31319;53.678;-6.254;2022-08-19T03:39:27;100917.59;;;19.62;52.14
42647;BME280;31319;53.678;-6.254;2022-08-19T03:41:54;100917.25;;;19.44;52.80
42647;BME280;31319;53.678;-6.254;2022-08-19T03:44:22;100919.31;;;19.70;51.80
42647;BME280;31319;53.678;-6.254;2022-08-19T03:46:57;100907.94;;;19.56;52.44
42647;BME280;31319;53.678;-6.254;2022-08-19T03:49:25;100907.38;;;19.66;52.04
42647;BME280;31319;53.678;-6.254;2022-08-19T03:51:53;100910.84;;;19.59;52.33
42647;BME280;31319;53.678;-6.254;2022-08-19T03:54:21;100897.47;;;19.23;53.57
42647;BME280;31319;53.678;-6.254;2022-08-19T03:56:51;100905.97;;;19.56;52.57
42647;BME280;31319;53.678;-6.254;2022-08-19T03:59:26;100911.22;;;19.38;53.18
42647;BME280;31319;53.678;-6.254;2022-08-19T04:01:57;100909.25;;;19.39;53.55
42647;BME280;31319;53.678;-6.254;2022-08-19T04:04:23;100904.25;;;19.48;53.21
42647;BME280;31319;53.678;-6.254;2022-08-19T04:06:49;100905.97;;;19.56;52.96
42647;BME280;31319;53.678;-6.254;2022-08-19T04:09:17;100898.50;;;19.57;53.00
42647;BME280;31319;53.678;-6.254;2022-08-19T04:11:49;100899.50;;;19.49;53.32
42647;BME280;31319;53.678;-6.254;2022-08-19T04:14:18;100894.69;;;19.65;53.06
42647;BME280;31319;53.678;-6.254;2022-08-19T04:16:46;100894.47;;;19.54;53.49
42647;BME280;31319;53.678;-6.254;2022-08-19T04:19:12;100902.41;;;19.56;53.21
42647;BME280;31319;53.678;-6.254;2022-08-19T04:21:38;100899.41;;;19.64;53.18
42647;BME280;31319;53.678;-6.254;2022-08-19T04:24:05;100904.63;;;19.47;53.98
42647;BME280;31319;53.678;-6.254;2022-08-19T04:26:34;100913.25;;;19.41;53.77
42647;BME280;31319;53.678;-6.254;2022-08-19T04:29:01;100916.75;;;19.38;53.97
42647;BME280;31319;53.678;-6.254;2022-08-19T04:31:30;100915.22;;;19.41;53.66
42647;BME280;31319;53.678;-6.254;2022-08-19T04:33:58;100926.03;;;19.69;53.04
42647;BME280;31319;53.678;-6.254;2022-08-19T04:36:31;100917.19;;;19.60;53.41
42647;BME280;31319;53.678;-6.254;2022-08-19T04:39:00;100923.91;;;19.59;53.48
42647;BME280;31319;53.678;-6.254;2022-08-19T04:41:26;100929.19;;;19.25;54.68
42647;BME280;31319;53.678;-6.254;2022-08-19T04:44:11;100920.03;;;19.44;54.11
42647;BME280;31319;53.678;-6.254;2022-08-19T04:46:37;100923.06;;;19.16;55.19
42647;BME280;31319;53.678;-6.254;2022-08-19T04:49:05;100929.97;;;19.26;54.64
42647;BME280;31319;53.678;-6.254;2022-08-19T04:51:33;100925.69;;;19.28;54.49
42647;BME280;31319;53.678;-6.254;2022-08-19T04:53:59;100934.66;;;19.22;54.89
42647;BME280;31319;53.678;-6.254;2022-08-19T04:56:26;100927.59;;;19.47;54.19
42647;BME280;31319;53.678;-6.254;2022-08-19T04:58:53;100927.97;;;19.46;54.06
42647;BME280;31319;53.678;-6.254;2022-08-19T05:01:26;100937.19;;;19.73;53.19
42647;BME280;31319;53.678;-6.254;2022-08-19T05:03:54;100946.63;;;19.68;53.48
42647;BME280;31319;53.678;-6.254;2022-08-19T05:06:21;100955.19;;;19.59;53.78
42647;BME280;31319;53.678;-6.254;2022-08-19T05:08:46;100952.78;;;19.58;53.76
42647;BME280;31319;53.678;-6.254;2022-08-19T05:11:47;100951.28;;;19.64;53.51
42647;BME280;31319;53.678;-6.254;2022-08-19T05:14:07;100961.78;;;19.74;53.16
42647;BME280;31319;53.678;-6.254;2022-08-19T05:16:33;100973.59;;;19.71;53.15
42647;BME280;31319;53.678;-6.254;2022-08-19T05:18:59;100980.19;;;19.44;54.23
42647;BME280;31319;53.678;-6.254;2022-08-19T05:21:43;100972.00;;;19.70;53.23
42647;BME280;31319;53.678;-6.254;2022-08-19T05:24:28;100973.00;;;19.81;52.89
42647;BME280;31319;53.678;-6.254;2022-08-19T05:26:55;100975.13;;;19.68;53.08
42647;BME280;31319;53.678;-6.254;2022-08-19T05:29:25;100976.19;;;19.60;53.46
42647;BME280;31319;53.678;-6.254;2022-08-19T05:31:52;100973.97;;;19.70;52.93
42647;BME280;31319;53.678;-6.254;2022-08-19T05:34:20;100978.78;;;19.73;53.04
42647;BME280;31319;53.678;-6.254;2022-08-19T05:36:48;100985.00;;;19.89;52.29
42647;BME280;31319;53.678;-6.254;2022-08-19T05:39:18;100996.69;;;20.02;52.04
42647;BME280;31319;53.678;-6.254;2022-08-19T05:41:56;100999.84;;;20.00;52.08
42647;BME280;31319;53.678;-6.254;2022-08-19T05:44:26;101003.38;;;19.97;52.19
42647;BME280;31319;53.678;-6.254;2022-08-19T05:46:53;101012.91;;;20.00;52.03
42647;BME280;31319;53.678;-6.254;2022-08-19T05:49:21;101014.22;;;20.06;51.84
42647;BME280;31319;53.678;-6.254;2022-08-19T05:51:48;101020.38;;;20.18;51.42
42647;BME280;31319;53.678;-6.254;2022-08-19T05:54:13;101017.34;;;20.27;51.24
42647;BME280;31319;53.678;-6.254;2022-08-19T05:56:40;101015.84;;;20.33;51.26
42647;BME280;31319;53.678;-6.254;2022-08-19T05:59:07;101017.06;;;20.36;51.21
42647;BME280;31319;53.678;-6.254;2022-08-19T06:01:39;101019.28;;;20.49;50.87
42647;BME280;31319;53.678;-6.254;2022-08-19T06:04:06;101019.03;;;20.58;50.61
42647;BME280;31319;53.678;-6.254;2022-08-19T06:06:33;101022.03;;;20.76;50.29
42647;BME280;31319;53.678;-6.254;2022-08-19T06:09:01;101028.47;;;20.80;50.29
42647;BME280;31319;53.678;-6.254;2022-08-19T06:11:42;101032.75;;;20.74;50.23
42647;BME280;31319;53.678;-6.254;2022-08-19T06:14:11;101033.16;;;20.76;50.20
42647;BME280;31319;53.678;-6.254;2022-08-19T06:16:40;101040.38;;;20.81;50.01
42647;BME280;31319;53.678;-6.254;2022-08-19T06:19:08;101038.72;;;20.76;50.20
42647;BME280;31319;53.678;-6.254;2022-08-19T06:21:36;101033.66;;;20.85;50.04
42647;BME280;31319;53.678;-6.254;2022-08-19T06:24:05;101036.66;;;20.99;49.86
42647;BME280;31319;53.678;-6.254;2022-08-19T06:26:33;101037.53;;;21.07;49.86
42647;BME280;31319;53.678;-6.254;2022-08-19T06:29:00;101040.66;;;21.02;49.78
42647;BME280;31319;53.678;-6.254;2022-08-19T06:31:27;101033.59;;;21.08;49.90
42647;BME280;31319;53.678;-6.254;2022-08-19T06:33:53;101033.66;;;21.15;49.22
42647;BME280;31319;53.678;-6.254;2022-08-19T06:36:25;101042.31;;;21.06;49.71
42647;BME280;31319;53.678;-6.254;2022-08-19T06:39:07;101039.91;;;21.05;49.66
42647;BME280;31319;53.678;-6.254;2022-08-19T06:41:38;101042.19;;;20.99;49.48
42647;BME280;31319;53.678;-6.254;2022-08-19T06:44:05;101051.78;;;21.02;49.28
42647;BME280;31319;53.678;-6.254;2022-08-19T06:46:31;101043.06;;;21.03;49.42
42647;BME280;31319;53.678;-6.254;2022-08-19T06:48:57;101056.63;;;21.09;49.43
42647;BME280;31319;53.678;-6.254;2022-08-19T06:51:23;101058.50;;;21.31;49.07
42647;BME280;31319;53.678;-6.254;2022-08-19T06:53:51;101056.28;;;21.44;48.75
42647;BME280;31319;53.678;-6.254;2022-08-19T06:56:19;101054.78;;;21.50;48.93
42647;BME280;31319;53.678;-6.254;2022-08-19T06:58:46;101054.56;;;21.66;48.58
42647;BME280;31319;53.678;-6.254;2022-08-19T07:01:13;101054.72;;;21.80;48.58
42647;BME280;31319;53.678;-6.254;2022-08-19T07:03:39;101052.03;;;21.91;48.38
42647;BME280;31319;53.678;-6.254;2022-08-19T07:06:06;101048.03;;;21.88;48.79
42647;BME280;31319;53.678;-6.254;2022-08-19T07:08:33;101047.47;;;22.09;48.36
42647;BME280;31319;53.678;-6.254;2022-08-19T07:11:00;101056.19;;;22.07;48.18
42647;BME280;31319;53.678;-6.254;2022-08-19T07:13:26;101050.72;;;22.14;47.88
42647;BME280;31319;53.678;-6.254;2022-08-19T07:15:52;101044.31;;;22.10;48.04
42647;BME280;31319;53.678;-6.254;2022-08-19T07:18:19;101034.09;;;22.25;47.93
42647;BME280;31319;53.678;-6.254;2022-08-19T07:20:45;101046.44;;;22.28;48.17
42647;BME280;31319;53.678;-6.254;2022-08-19T07:23:11;101051.59;;;22.26;48.02
42647;BME280;31319;53.678;-6.254;2022-08-19T07:25:37;101051.66;;;22.33;48.01
42647;BME280;31319;53.678;-6.254;2022-08-19T07:28:03;101046.69;;;22.63;47.19
42647;BME280;31319;53.678;-6.254;2022-08-19T07:30:30;101059.84;;;22.66;46.69
42647;BME280;31319;53.678;-6.254;2022-08-19T07:32:55;101056.53;;;22.47;47.56
42647;BME280;31319;53.678;-6.254;2022-08-19T07:35:22;101063.00;;;22.61;47.13
42647;BME280;31319;53.678;-6.254;2022-08-19T07:37:49;101062.59;;;22.63;47.38
42647;BME280;31319;53.678;-6.254;2022-08-19T07:40:14;101067.84;;;22.71;47.07
42647;BME280;31319;53.678;-6.254;2022-08-19T07:42:41;101068.97;;;22.63;46.76
42647;BME280;31319;53.678;-6.254;2022-08-19T07:45:07;101064.94;;;22.57;46.94
42647;BME280;31319;53.678;-6.254;2022-08-19T07:47:33;101069.44;;;22.73;46.40
42647;BME280;31319;53.678;-6.254;2022-08-19T07:49:59;101066.00;;;22.93;45.96
42647;BME280;31319;53.678;-6.254;2022-08-19T07:52:24;101063.31;;;23.11;45.52
42647;BME280;31319;53.678;-6.254;2022-08-19T07:54:50;101050.25;;;23.22;45.50
42647;BME280;31319;53.678;-6.254;2022-08-19T07:57:16;101059.78;;;23.21;45.37
42647;BME280;31319;53.678;-6.254;2022-08-19T07:59:42;101064.97;;;23.23;45.44
42647;BME280;31319;53.678;-6.254;2022-08-19T08:02:08;101080.50;;;23.20;45.38
42647;BME280;31319;53.678;-6.254;2022-08-19T08:04:34;101078.59;;;23.42;44.49
42647;BME280;31319;53.678;-6.254;2022-08-19T08:07:18;101086.97;;;23.49;44.77
42647;BME280;31319;53.678;-6.254;2022-08-19T08:10:05;101086.28;;;23.67;44.78
42647;BME280;31319;53.678;-6.254;2022-08-19T08:12:37;101093.47;;;23.68;44.36
42647;BME280;31319;53.678;-6.254;2022-08-19T08:15:10;101091.91;;;23.92;43.79
42647;BME280;31319;53.678;-6.254;2022-08-19T08:17:36;101093.34;;;23.50;44.40
42647;BME280;31319;53.678;-6.254;2022-08-19T08:20:04;101096.69;;;23.95;43.57
42647;BME280;31319;53.678;-6.254;2022-08-19T08:22:32;101099.44;;;23.66;44.15
42647;BME280;31319;53.678;-6.254;2022-08-19T08:25:20;101092.16;;;23.44;44.00
42647;BME280;31319;53.678;-6.254;2022-08-19T08:27:46;101098.25;;;23.67;43.42
42647;BME280;31319;53.678;-6.254;2022-08-19T08:30:20;101086.66;;;23.65;43.96
42647;BME280;31319;53.678;-6.254;2022-08-19T08:32:47;101089.94;;;24.03;43.30
42647;BME280;31319;53.678;-6.254;2022-08-19T08:35:17;101091.53;;;23.93;43.38
42647;BME280;31319;53.678;-6.254;2022-08-19T08:37:44;101095.44;;;23.60;43.98
42647;BME280;31319;53.678;-6.254;2022-08-19T08:40:33;101099.50;;;23.95;42.60
42647;BME280;31319;53.678;-6.254;2022-08-19T08:45:56;101101.88;;;23.82;42.91
42647;BME280;31319;53.678;-6.254;2022-08-19T08:48:30;101095.94;;;24.12;42.46
42647;BME280;31319;53.678;-6.254;2022-08-19T08:51:02;101103.88;;;24.03;42.88
42647;BME280;31319;53.678;-6.254;2022-08-19T08:53:30;101099.53;;;24.13;42.92
42647;BME280;31319;53.678;-6.254;2022-08-19T08:55:58;101101.56;;;24.48;42.43
42647;BME280;31319;53.678;-6.254;2022-08-19T08:58:36;101096.34;;;24.14;43.28
42647;BME280;31319;53.678;-6.254;2022-08-19T09:01:11;101100.75;;;24.26;42.66
42647;BME280;31319;53.678;-6.254;2022-08-19T09:03:39;101094.78;;;24.59;41.92
42647;BME280;31319;53.678;-6.254;2022-08-19T09:06:18;101095.19;;;24.72;42.42
42647;BME280;31319;53.678;-6.254;2022-08-19T09:14:32;101091.84;;;25.31;41.01
42647;BME280;31319;53.678;-6.254;2022-08-19T09:16:58;101087.88;;;25.28;41.72
42647;BME280;31319;53.678;-6.254;2022-08-19T09:19:24;101074.91;;;25.66;40.42
42647;BME280;31319;53.678;-6.254;2022-08-19T09:21:50;101080.50;;;25.70;40.38
42647;BME280;31319;53.678;-6.254;2022-08-19T09:24:16;101083.28;;;25.70;39.76
42647;BME280;31319;53.678;-6.254;2022-08-19T09:26:41;101086.09;;;25.70;39.66
42647;BME280;31319;53.678;-6.254;2022-08-19T09:29:09;101087.03;;;25.42;39.72
42647;BME280;31319;53.678;-6.254;2022-08-19T09:31:36;101089.50;;;25.26;39.18
42647;BME280;31319;53.678;-6.254;2022-08-19T09:34:04;101085.78;;;25.46;39.41
42647;BME280;31319;53.678;-6.254;2022-08-19T09:36:30;101095.47;;;25.28;39.50
42647;BME280;31319;53.678;-6.254;2022-08-19T09:39:04;101091.69;;;25.73;39.03
42647;BME280;31319;53.678;-6.254;2022-08-19T09:41:31;101083.28;;;25.73;39.15
42647;BME280;31319;53.678;-6.254;2022-08-19T09:43:58;101082.75;;;25.96;38.40
42647;BME280;31319;53.678;-6.254;2022-08-19T09:46:26;101084.56;;;25.51;39.32
42647;BME280;31319;53.678;-6.254;2022-08-19T09:48:54;101083.66;;;25.79;38.67
42647;BME280;31319;53.678;-6.254;2022-08-19T09:51:22;101077.69;;;25.70;38.49
42647;BME280;31319;53.678;-6.254;2022-08-19T09:53:49;101072.19;;;25.56;38.00
42647;BME280;31319;53.678;-6.254;2022-08-19T09:56:17;101093.03;;;25.40;38.36
42647;BME280;31319;53.678;-6.254;2022-08-19T09:58:43;101082.94;;;25.57;38.00
42647;BME280;31319;53.678;-6.254;2022-08-19T10:01:19;101086.13;;;25.59;37.88
42647;BME280;31319;53.678;-6.254;2022-08-19T10:03:48;101084.13;;;25.60;38.16
42647;BME280;31319;53.678;-6.254;2022-08-19T10:06:14;101088.13;;;25.59;38.35
42647;BME280;31319;53.678;-6.254;2022-08-19T10:08:41;101083.06;;;25.32;38.63
42647;BME280;31319;53.678;-6.254;2022-08-19T10:11:06;101082.47;;;25.77;38.21
42647;BME280;31319;53.678;-6.254;2022-08-19T10:13:33;101093.34;;;25.57;38.36
42647;BME280;31319;53.678;-6.254;2022-08-19T10:16:22;101072.94;;;25.60;37.82
42647;BME280;31319;53.678;-6.254;2022-08-19T10:18:49;101078.88;;;25.76;37.61
42647;BME280;31319;53.678;-6.254;2022-08-19T10:23:47;101069.38;;;25.56;37.92
42647;BME280;31319;53.678;-6.254;2022-08-19T10:26:17;101069.31;;;25.66;37.90
42647;BME280;31319;53.678;-6.254;2022-08-19T10:28:43;101081.91;;;25.19;38.62
42647;BME280;31319;53.678;-6.254;2022-08-19T10:31:13;101074.94;;;25.63;37.48
42647;BME280;31319;53.678;-6.254;2022-08-19T10:33:40;101083.47;;;25.24;38.87
42647;BME280;31319;53.678;-6.254;2022-08-19T10:36:15;101077.88;;;25.34;38.74
42647;BME280;31319;53.678;-6.254;2022-08-19T10:38:43;101085.84;;;25.36;38.92
42647;BME280;31319;53.678;-6.254;2022-08-19T10:41:16;101082.69;;;25.27;39.32
42647;BME280;31319;53.678;-6.254;2022-08-19T10:43:44;101082.31;;;25.21;39.83
42647;BME280;31319;53.678;-6.254;2022-08-19T10:46:15;101093.09;;;25.26;40.04
42647;BME280;31319;53.678;-6.254;2022-08-19T10:48:41;101089.31;;;25.61;39.57
42647;BME280;31319;53.678;-6.254;2022-08-19T10:51:08;101084.50;;;25.72;39.83
42647;BME280;31319;53.678;-6.254;2022-08-19T10:53:52;101086.75;;;25.95;39.90
42647;BME280;31319;53.678;-6.254;2022-08-19T10:56:18;101070.38;;;25.94;39.50
42647;BME280;31319;53.678;-6.254;2022-08-19T10:59:04;101065.59;;;26.46;38.39
42647;BME280;31319;53.678;-6.254;2022-08-19T11:01:31;101070.03;;;26.40;37.94
42647;BME280;31319;53.678;-6.254;2022-08-19T11:04:00;101073.72;;;26.30;37.38
42647;BME280;31319;53.678;-6.254;2022-08-19T11:06:26;101064.25;;;26.99;36.89
42647;BME280;31319;53.678;-6.254;2022-08-19T11:08:54;101066.28;;;26.95;36.19
42647;BME280;31319;53.678;-6.254;2022-08-19T11:11:33;101072.69;;;26.96;36.26
42647;BME280;31319;53.678;-6.254;2022-08-19T11:14:05;101078.91;;;26.28;37.03
42647;BME280;31319;53.678;-6.254;2022-08-19T11:16:31;101106.81;;;26.46;37.52
42647;BME280;31319;53.678;-6.254;2022-08-19T11:18:58;101100.94;;;26.74;37.52
42647;BME280;31319;53.678;-6.254;2022-08-19T11:21:28;101083.00;;;26.68;37.89
42647;BME280;31319;53.678;-6.254;2022-08-19T11:23:58;101082.03;;;26.37;38.17
42647;BME280;31319;53.678;-6.254;2022-08-19T11:26:24;101074.91;;;26.74;37.49
42647;BME280;31319;53.678;-6.254;2022-08-19T11:28:50;101073.13;;;26.53;37.89
42647;BME280;31319;53.678;-6.254;2022-08-19T11:31:20;101076.06;;;26.35;37.32
42647;BME280;31319;53.678;-6.254;2022-08-19T11:33:46;101086.13;;;26.74;36.58
42647;BME280;31319;53.678;-6.254;2022-08-19T11:36:18;101080.84;;;26.38;35.94
42647;BME280;31319;53.678;-6.254;2022-08-19T11:38:46;101083.69;;;26.31;35.92
42647;BME280;31319;53.678;-6.254;2022-08-19T11:41:16;101088.41;;;26.45;35.83
42647;BME280;31319;53.678;-6.254;2022-08-19T11:43:43;101096.22;;;26.68;35.89
42647;BME280;31319;53.678;-6.254;2022-08-19T11:46:11;101082.66;;;26.59;35.99
42647;BME280;31319;53.678;-6.254;2022-08-19T11:48:38;101097.75;;;26.76;35.98
42647;BME280;31319;53.678;-6.254;2022-08-19T11:51:07;101090.94;;;26.73;36.08
42647;BME280;31319;53.678;-6.254;2022-08-19T11:53:34;101095.56;;;26.49;36.66
42647;BME280;31319;53.678;-6.254;2022-08-19T11:56:02;101084.16;;;27.12;36.17
42647;BME280;31319;53.678;-6.254;2022-08-19T11:58:29;101077.59;;;26.88;36.10
42647;BME280;31319;53.678;-6.254;2022-08-19T12:00:56;101087.31;;;27.18;35.58
42647;BME280;31319;53.678;-6.254;2022-08-19T12:03:22;101086.25;;;26.63;36.27
42647;BME280;31319;53.678;-6.254;2022-08-19T12:05:48;101077.50;;;27.33;35.01
42647;BME280;31319;53.678;-6.254;2022-08-19T12:08:15;101090.31;;;27.64;34.82
42647;BME280;31319;53.678;-6.254;2022-08-19T12:10:42;101087.50;;;27.68;34.95
42647;BME280;31319;53.678;-6.254;2022-08-19T12:13:09;101077.50;;;27.67;35.07
42647;BME280;31319;53.678;-6.254;2022-08-19T12:15:39;101077.88;;;27.35;35.67
42647;BME280;31319;53.678;-6.254;2022-08-19T12:18:08;101080.66;;;27.65;35.05
42647;BME280;31319;53.678;-6.254;2022-08-19T12:20:40;101075.88;;;27.66;34.96
42647;BME280;31319;53.678;-6.254;2022-08-19T12:23:07;101077.97;;;27.58;34.82
42647;BME280;31319;53.678;-6.254;2022-08-19T12:25:35;101084.06;;;27.53;34.99
42647;BME280;31319;53.678;-6.254;2022-08-19T12:28:03;101078.81;;;27.55;35.13
42647;BME280;31319;53.678;-6.254;2022-08-19T12:30:29;101075.38;;;27.75;35.12
42647;BME280;31319;53.678;-6.254;2022-08-19T12:32:54;101071.25;;;27.52;35.02
42647;BME280;31319;53.678;-6.254;2022-08-19T12:35:20;101072.19;;;27.73;34.73
42647;BME280;31319;53.678;-6.254;2022-08-19T12:37:48;101064.50;;;27.77;34.17
42647;BME280;31319;53.678;-6.254;2022-08-19T12:40:15;101065.13;;;27.88;34.31
42647;BME280;31319;53.678;-6.254;2022-08-19T12:42:42;101071.06;;;28.20;34.01
42647;BME280;31319;53.678;-6.254;2022-08-19T12:45:12;101072.22;;;27.96;34.59
42647;BME280;31319;53.678;-6.254;2022-08-19T12:47:38;101067.31;;;28.31;33.63
42647;BME280;31319;53.678;-6.254;2022-08-19T12:50:04;101050.47;;;27.77;33.99
42647;BME280;31319;53.678;-6.254;2022-08-19T12:52:31;101076.84;;;28.60;32.99
42647;BME280;31319;53.678;-6.254;2022-08-19T12:54:57;101069.88;;;28.45;33.17
42647;BME280;31319;53.678;-6.254;2022-08-19T12:57:26;101076.28;;;28.45;32.55
42647;BME280;31319;53.678;-6.254;2022-08-19T12:59:53;101061.88;;;28.43;33.25